sensor_id;sensor_type;location;lat;lon;timestamp;temperature;humidity
10492;DHT22;5293;51.464;-2.566;2023-04-03T00:00:22;6.80;99.90
10492;DHT22;5293;51.464;-2.566;2023-04-03T00:02:48;6.80;99.90
10492;DHT22;5293;51.464;-2.566;2023-04-03T00:05:13;6.90;99.90
10492;DHT22;5293;51.464;-2.566;2023-04-03T00:07:39;6.90;99.90
10492;DHT22;5293;51.464;-2.566;2023-04-03T00:10:06;6.90;99.90
10492;DHT22;5293;51.464;-2.566;2023-04-03T00:12:31;6.80;99.90
10492;DHT22;5293;51.464;-2.566;2023-04-03T00:14:57;6.80;99.90
10492;DHT22;5293;51.464;-2.566;2023-04-03T00:17:23;6.90;99.90
10492;DHT22;5293;51.464;-2.566;2023-04-03T00:19:48;6.90;99.90
10492;DHT22;5293;51.464;-2.566;2023-04-03T00:22:14;6.90;99.90
10492;DHT22;5293;51.464;-2.566;2023-04-03T00:24:40;6.90;99.90
10492;DHT22;5293;51.464;-2.566;2023-04-03T00:27:06;6.80;99.90
10492;DHT22;5293;51.464;-2.566;2023-04-03T00:29:31;6.90;99.90
10492;DHT22;5293;51.464;-2.566;2023-04-03T00:31:57;6.80;99.90
10492;DHT22;5293;51.464;-2.566;2023-04-03T00:34:22;6.80;99.90
10492;DHT22;5293;51.464;-2.566;2023-04-03T00:36:48;6.80;99.90
10492;DHT22;5293;51.464;-2.566;2023-04-03T00:39:14;6.70;99.90
10492;DHT22;5293;51.464;-2.566;2023-04-03T00:41:39;6.70;99.90
10492;DHT22;5293;51.464;-2.566;2023-04-03T00:47:01;6.60;99.90
10492;DHT22;5293;51.464;-2.566;2023-04-03T00:49:29;6.60;99.90
10492;DHT22;5293;51.464;-2.566;2023-04-03T00:51:56;6.70;99.90
10492;DHT22;5293;51.464;-2.566;2023-04-03T00:54:22;6.70;99.90
10492;DHT22;5293;51.464;-2.566;2023-04-03T00:56:50;6.60;99.90
10492;DHT22;5293;51.464;-2.566;2023-04-03T00:59:38;6.60;99.90
10492;DHT22;5293;51.464;-2.566;2023-04-03T01:02:05;6.50;99.90
10492;DHT22;5293;51.464;-2.566;2023-04-03T01:04:39;6.40;99.90
10492;DHT22;5293;51.464;-2.566;2023-04-03T01:07:16;6.30;99.90
10492;DHT22;5293;51.464;-2.566;2023-04-03T01:09:43;6.30;99.90
10492;DHT22;5293;51.464;-2.566;2023-04-03T01:14:41;6.30;99.90
10492;DHT22;5293;51.464;-2.566;2023-04-03T01:17:39;6.20;99.90
10492;DHT22;5293;51.464;-2.566;2023-04-03T01:25:11;6.10;99.90
10492;DHT22;5293;51.464;-2.566;2023-04-03T01:27:37;6.10;99.90
10492;DHT22;5293;51.464;-2.566;2023-04-03T01:30:03;6.00;99.90
10492;DHT22;5293;51.464;-2.566;2023-04-03T01:32:29;6.00;99.90
10492;DHT22;5293;51.464;-2.566;2023-04-03T01:34:55;5.90;99.90
10492;DHT22;5293;51.464;-2.566;2023-04-03T01:37:20;5.80;99.90
10492;DHT22;5293;51.464;-2.566;2023-04-03T01:39:46;5.80;99.90
10492;DHT22;5293;51.464;-2.566;2023-04-03T01:42:12;5.80;99.90
10492;DHT22;5293;51.464;-2.566;2023-04-03T01:44:37;5.90;99.90
10492;DHT22;5293;51.464;-2.566;2023-04-03T01:47:06;5.80;99.90
10492;DHT22;5293;51.464;-2.566;2023-04-03T01:49:31;5.80;99.90
10492;DHT22;5293;51.464;-2.566;2023-04-03T01:51:57;5.70;99.90
10492;DHT22;5293;51.464;-2.566;2023-04-03T01:54:23;5.70;99.90
10492;DHT22;5293;51.464;-2.566;2023-04-03T01:56:48;5.70;99.90
10492;DHT22;5293;51.464;-2.566;2023-04-03T01:59:14;5.60;99.90
10492;DHT22;5293;51.464;-2.566;2023-04-03T02:01:42;5.50;99.90
10492;DHT22;5293;51.464;-2.566;2023-04-03T02:04:09;5.40;99.90
10492;DHT22;5293;51.464;-2.566;2023-04-03T02:06:34;5.30;99.90
10492;DHT22;5293;51.464;-2.566;2023-04-03T02:09:00;5.30;99.90
10492;DHT22;5293;51.464;-2.566;2023-04-03T02:11:26;5.30;99.90
10492;DHT22;5293;51.464;-2.566;2023-04-03T02:13:51;5.30;99.90
10492;DHT22;5293;51.464;-2.566;2023-04-03T02:16:17;5.20;99.90
10492;DHT22;5293;51.464;-2.566;2023-04-03T02:18:44;5.20;99.90
10492;DHT22;5293;51.464;-2.566;2023-04-03T02:21:09;5.20;99.90
10492;DHT22;5293;51.464;-2.566;2023-04-03T02:23:35;5.20;99.90
10492;DHT22;5293;51.464;-2.566;2023-04-03T02:26:12;5.20;99.90
10492;DHT22;5293;51.464;-2.566;2023-04-03T02:28:39;5.10;99.90
10492;DHT22;5293;51.464;-2.566;2023-04-03T02:31:06;5.20;99.90
10492;DHT22;5293;51.464;-2.566;2023-04-03T02:33:33;5.20;99.90
10492;DHT22;5293;51.464;-2.566;2023-04-03T02:35:59;5.20;99.90
10492;DHT22;5293;51.464;-2.566;2023-04-03T02:38:25;5.20;99.90
10492;DHT22;5293;51.464;-2.566;2023-04-03T02:40:51;5.20;99.90
10492;DHT22;5293;51.464;-2.566;2023-04-03T02:43:17;5.10;99.90
10492;DHT22;5293;51.464;-2.566;2023-04-03T02:45:43;5.10;99.90
10492;DHT22;5293;51.464;-2.566;2023-04-03T02:48:09;5.10;99.90
10492;DHT22;5293;51.464;-2.566;2023-04-03T02:50:35;5.30;99.90
10492;DHT22;5293;51.464;-2.566;2023-04-03T02:53:00;5.30;99.90
10492;DHT22;5293;51.464;-2.566;2023-04-03T02:55:26;5.30;99.90
10492;DHT22;5293;51.464;-2.566;2023-04-03T02:57:52;5.30;99.90
10492;DHT22;5293;51.464;-2.566;2023-04-03T03:00:18;5.30;99.90
10492;DHT22;5293;51.464;-2.566;2023-04-03T03:02:43;5.20;99.90
10492;DHT22;5293;51.464;-2.566;2023-04-03T03:05:09;5.20;99.90
10492;DHT22;5293;51.464;-2.566;2023-04-03T03:07:35;5.20;99.90
10492;DHT22;5293;51.464;-2.566;2023-04-03T03:10:01;5.20;99.90
10492;DHT22;5293;51.464;-2.566;2023-04-03T03:12:26;5.30;99.90
10492;DHT22;5293;51.464;-2.566;2023-04-03T03:14:52;5.40;99.90
10492;DHT22;5293;51.464;-2.566;2023-04-03T03:17:17;5.40;99.90
10492;DHT22;5293;51.464;-2.566;2023-04-03T03:19:43;5.30;99.90
10492;DHT22;5293;51.464;-2.566;2023-04-03T03:22:11;5.30;99.90
10492;DHT22;5293;51.464;-2.566;2023-04-03T03:24:36;5.30;99.90
10492;DHT22;5293;51.464;-2.566;2023-04-03T03:27:02;5.40;99.90
10492;DHT22;5293;51.464;-2.566;2023-04-03T03:29:28;5.30;99.90
10492;DHT22;5293;51.464;-2.566;2023-04-03T03:31:53;5.30;99.90
10492;DHT22;5293;51.464;-2.566;2023-04-03T03:34:19;5.30;99.90
10492;DHT22;5293;51.464;-2.566;2023-04-03T03:36:45;5.20;99.90
10492;DHT22;5293;51.464;-2.566;2023-04-03T03:39:12;5.30;99.90
10492;DHT22;5293;51.464;-2.566;2023-04-03T03:41:38;5.20;99.90
10492;DHT22;5293;51.464;-2.566;2023-04-03T03:44:03;5.20;99.90
10492;DHT22;5293;51.464;-2.566;2023-04-03T03:46:29;5.20;99.90
10492;DHT22;5293;51.464;-2.566;2023-04-03T03:48:55;5.30;99.90
10492;DHT22;5293;51.464;-2.566;2023-04-03T03:51:20;5.30;99.90
10492;DHT22;5293;51.464;-2.566;2023-04-03T03:53:46;5.20;99.90
10492;DHT22;5293;51.464;-2.566;2023-04-03T03:56:11;5.20;99.90
10492;DHT22;5293;51.464;-2.566;2023-04-03T03:58:37;5.20;99.90
10492;DHT22;5293;51.464;-2.566;2023-04-03T04:01:04;5.20;99.90
10492;DHT22;5293;51.464;-2.566;2023-04-03T04:03:30;5.20;99.90
10492;DHT22;5293;51.464;-2.566;2023-04-03T04:05:56;5.10;99.90
10492;DHT22;5293;51.464;-2.566;2023-04-03T04:08:22;5.10;99.90
10492;DHT22;5293;51.464;-2.566;2023-04-03T04:10:48;5.10;99.90
10492;DHT22;5293;51.464;-2.566;2023-04-03T04:13:14;5.00;99.90
10492;DHT22;5293;51.464;-2.566;2023-04-03T04:15:40;4.90;99.90
10492;DHT22;5293;51.464;-2.566;2023-04-03T04:18:05;4.90;99.90
10492;DHT22;5293;51.464;-2.566;2023-04-03T04:20:31;4.80;99.90
10492;DHT22;5293;51.464;-2.566;2023-04-03T04:22:57;4.80;99.90
10492;DHT22;5293;51.464;-2.566;2023-04-03T04:25:22;4.90;99.90
10492;DHT22;5293;51.464;-2.566;2023-04-03T04:27:48;4.90;99.90
10492;DHT22;5293;51.464;-2.566;2023-04-03T04:30:14;4.80;99.90
10492;DHT22;5293;51.464;-2.566;2023-04-03T04:32:40;4.90;99.90
10492;DHT22;5293;51.464;-2.566;2023-04-03T04:35:06;4.80;99.90
10492;DHT22;5293;51.464;-2.566;2023-04-03T04:37:32;4.80;99.90
10492;DHT22;5293;51.464;-2.566;2023-04-03T04:39:57;4.60;99.90
10492;DHT22;5293;51.464;-2.566;2023-04-03T04:42:23;4.60;99.90
10492;DHT22;5293;51.464;-2.566;2023-04-03T04:44:49;4.50;99.90
10492;DHT22;5293;51.464;-2.566;2023-04-03T04:47:14;4.50;99.90
10492;DHT22;5293;51.464;-2.566;2023-04-03T04:49:40;4.50;99.90
10492;DHT22;5293;51.464;-2.566;2023-04-03T04:52:06;4.40;99.90
10492;DHT22;5293;51.464;-2.566;2023-04-03T04:54:31;4.40;99.90
10492;DHT22;5293;51.464;-2.566;2023-04-03T04:56:57;4.40;99.90
10492;DHT22;5293;51.464;-2.566;2023-04-03T04:59:23;4.30;99.90
10492;DHT22;5293;51.464;-2.566;2023-04-03T05:01:49;4.40;99.90
10492;DHT22;5293;51.464;-2.566;2023-04-03T05:04:14;4.40;99.90
10492;DHT22;5293;51.464;-2.566;2023-04-03T05:06:40;4.30;99.90
10492;DHT22;5293;51.464;-2.566;2023-04-03T05:09:06;4.40;99.90
10492;DHT22;5293;51.464;-2.566;2023-04-03T05:11:32;4.50;99.90
10492;DHT22;5293;51.464;-2.566;2023-04-03T05:13:58;4.40;99.90
10492;DHT22;5293;51.464;-2.566;2023-04-03T05:16:23;4.30;99.90
10492;DHT22;5293;51.464;-2.566;2023-04-03T05:18:50;4.40;99.90
10492;DHT22;5293;51.464;-2.566;2023-04-03T05:21:15;4.30;99.90
10492;DHT22;5293;51.464;-2.566;2023-04-03T05:23:41;4.30;99.90
10492;DHT22;5293;51.464;-2.566;2023-04-03T05:26:07;4.30;99.90
10492;DHT22;5293;51.464;-2.566;2023-04-03T05:28:34;4.30;99.90
10492;DHT22;5293;51.464;-2.566;2023-04-03T05:31:00;4.20;99.90
10492;DHT22;5293;51.464;-2.566;2023-04-03T05:33:26;4.20;99.90
10492;DHT22;5293;51.464;-2.566;2023-04-03T05:35:52;4.20;99.90
10492;DHT22;5293;51.464;-2.566;2023-04-03T05:38:18;4.20;99.90
10492;DHT22;5293;51.464;-2.566;2023-04-03T05:40:44;4.10;99.90
10492;DHT22;5293;51.464;-2.566;2023-04-03T05:43:10;4.20;99.90
10492;DHT22;5293;51.464;-2.566;2023-04-03T05:45:36;4.20;99.90
10492;DHT22;5293;51.464;-2.566;2023-04-03T05:48:01;4.30;99.90
10492;DHT22;5293;51.464;-2.566;2023-04-03T05:50:27;4.40;99.90
10492;DHT22;5293;51.464;-2.566;2023-04-03T05:52:55;4.40;99.90
10492;DHT22;5293;51.464;-2.566;2023-04-03T05:55:22;4.40;99.90
10492;DHT22;5293;51.464;-2.566;2023-04-03T05:57:47;4.40;99.90
10492;DHT22;5293;51.464;-2.566;2023-04-03T06:00:14;4.20;99.90
10492;DHT22;5293;51.464;-2.566;2023-04-03T06:02:41;4.00;99.90
10492;DHT22;5293;51.464;-2.566;2023-04-03T06:05:08;4.00;99.90
10492;DHT22;5293;51.464;-2.566;2023-04-03T06:07:34;4.10;99.90
10492;DHT22;5293;51.464;-2.566;2023-04-03T06:10:00;4.10;99.90
10492;DHT22;5293;51.464;-2.566;2023-04-03T06:12:27;4.20;99.90
10492;DHT22;5293;51.464;-2.566;2023-04-03T06:14:55;4.20;99.90
10492;DHT22;5293;51.464;-2.566;2023-04-03T06:17:20;4.20;99.90
10492;DHT22;5293;51.464;-2.566;2023-04-03T06:19:47;4.30;99.90
10492;DHT22;5293;51.464;-2.566;2023-04-03T06:22:13;4.20;99.90
10492;DHT22;5293;51.464;-2.566;2023-04-03T06:24:39;4.30;99.90
10492;DHT22;5293;51.464;-2.566;2023-04-03T06:27:04;4.20;99.90
10492;DHT22;5293;51.464;-2.566;2023-04-03T06:29:30;4.10;99.90
10492;DHT22;5293;51.464;-2.566;2023-04-03T06:31:56;4.10;99.90
10492;DHT22;5293;51.464;-2.566;2023-04-03T06:34:22;4.10;99.90
10492;DHT22;5293;51.464;-2.566;2023-04-03T06:36:48;4.30;99.90
10492;DHT22;5293;51.464;-2.566;2023-04-03T06:39:19;4.40;99.90
10492;DHT22;5293;51.464;-2.566;2023-04-03T06:41:48;4.40;99.90
10492;DHT22;5293;51.464;-2.566;2023-04-03T06:44:14;4.50;99.90
10492;DHT22;5293;51.464;-2.566;2023-04-03T06:46:41;4.40;99.90
10492;DHT22;5293;51.464;-2.566;2023-04-03T06:49:08;4.50;99.90
10492;DHT22;5293;51.464;-2.566;2023-04-03T06:51:34;4.50;99.90
10492;DHT22;5293;51.464;-2.566;2023-04-03T06:54:02;4.40;99.90
10492;DHT22;5293;51.464;-2.566;2023-04-03T06:56:28;4.50;99.90
10492;DHT22;5293;51.464;-2.566;2023-04-03T06:58:55;4.60;99.90
10492;DHT22;5293;51.464;-2.566;2023-04-03T07:01:24;4.60;99.90
10492;DHT22;5293;51.464;-2.566;2023-04-03T07:03:50;4.70;99.90
10492;DHT22;5293;51.464;-2.566;2023-04-03T07:06:17;4.70;99.90
10492;DHT22;5293;51.464;-2.566;2023-04-03T07:08:43;4.70;99.90
10492;DHT22;5293;51.464;-2.566;2023-04-03T07:11:10;4.60;99.90
10492;DHT22;5293;51.464;-2.566;2023-04-03T07:13:36;4.70;99.90
10492;DHT22;5293;51.464;-2.566;2023-04-03T07:16:03;4.80;99.90
10492;DHT22;5293;51.464;-2.566;2023-04-03T07:18:31;4.80;99.90
10492;DHT22;5293;51.464;-2.566;2023-04-03T07:20:57;4.90;99.90
10492;DHT22;5293;51.464;-2.566;2023-04-03T07:23:24;5.00;99.90
10492;DHT22;5293;51.464;-2.566;2023-04-03T07:25:50;5.10;99.90
10492;DHT22;5293;51.464;-2.566;2023-04-03T07:28:17;5.20;99.90
10492;DHT22;5293;51.464;-2.566;2023-04-03T07:30:59;5.20;99.90
10492;DHT22;5293;51.464;-2.566;2023-04-03T07:33:26;5.40;99.90
10492;DHT22;5293;51.464;-2.566;2023-04-03T07:35:51;5.40;99.90
10492;DHT22;5293;51.464;-2.566;2023-04-03T07:38:17;5.50;99.90
10492;DHT22;5293;51.464;-2.566;2023-04-03T07:40:47;5.40;99.90
10492;DHT22;5293;51.464;-2.566;2023-04-03T07:43:14;5.70;99.90
10492;DHT22;5293;51.464;-2.566;2023-04-03T07:45:42;5.80;99.90
10492;DHT22;5293;51.464;-2.566;2023-04-03T07:48:09;5.90;99.90
10492;DHT22;5293;51.464;-2.566;2023-04-03T07:50:35;5.90;99.90
10492;DHT22;5293;51.464;-2.566;2023-04-03T07:53:02;5.80;99.90
10492;DHT22;5293;51.464;-2.566;2023-04-03T07:55:28;5.70;99.90
10492;DHT22;5293;51.464;-2.566;2023-04-03T07:57:54;5.80;99.90
10492;DHT22;5293;51.464;-2.566;2023-04-03T08:00:21;6.00;99.90
10492;DHT22;5293;51.464;-2.566;2023-04-03T08:02:46;6.10;99.90
10492;DHT22;5293;51.464;-2.566;2023-04-03T08:05:19;6.20;99.90
10492;DHT22;5293;51.464;-2.566;2023-04-03T08:07:45;6.30;99.90
10492;DHT22;5293;51.464;-2.566;2023-04-03T08:10:11;6.40;99.90
10492;DHT22;5293;51.464;-2.566;2023-04-03T08:12:37;6.50;99.90
10492;DHT22;5293;51.464;-2.566;2023-04-03T08:15:04;6.60;99.90
10492;DHT22;5293;51.464;-2.566;2023-04-03T08:17:29;6.60;99.90
10492;DHT22;5293;51.464;-2.566;2023-04-03T08:19:55;6.60;99.90
10492;DHT22;5293;51.464;-2.566;2023-04-03T08:22:21;6.80;99.90
10492;DHT22;5293;51.464;-2.566;2023-04-03T08:24:47;6.90;99.90
10492;DHT22;5293;51.464;-2.566;2023-04-03T08:27:12;7.00;99.90
10492;DHT22;5293;51.464;-2.566;2023-04-03T08:29:38;7.00;99.90
10492;DHT22;5293;51.464;-2.566;2023-04-03T08:32:04;7.00;99.90
10492;DHT22;5293;51.464;-2.566;2023-04-03T08:34:31;7.10;99.90
10492;DHT22;5293;51.464;-2.566;2023-04-03T08:37:00;7.00;99.90
10492;DHT22;5293;51.464;-2.566;2023-04-03T08:39:26;7.20;99.90
10492;DHT22;5293;51.464;-2.566;2023-04-03T08:41:52;7.30;99.90
10492;DHT22;5293;51.464;-2.566;2023-04-03T08:47:24;7.60;99.90
10492;DHT22;5293;51.464;-2.566;2023-04-03T08:50:00;7.70;99.90
10492;DHT22;5293;51.464;-2.566;2023-04-03T08:52:38;7.70;99.90
10492;DHT22;5293;51.464;-2.566;2023-04-03T08:55:14;7.60;99.90
10492;DHT22;5293;51.464;-2.566;2023-04-03T08:57:44;7.70;99.90
10492;DHT22;5293;51.464;-2.566;2023-04-03T09:02:45;7.90;99.90
10492;DHT22;5293;51.464;-2.566;2023-04-03T09:05:15;8.00;99.90
10492;DHT22;5293;51.464;-2.566;2023-04-03T09:07:47;8.00;99.90
10492;DHT22;5293;51.464;-2.566;2023-04-03T09:10:19;8.10;99.90
10492;DHT22;5293;51.464;-2.566;2023-04-03T09:12:53;8.10;99.90
10492;DHT22;5293;51.464;-2.566;2023-04-03T09:15:22;8.30;99.90
10492;DHT22;5293;51.464;-2.566;2023-04-03T09:21:07;8.30;99.90
10492;DHT22;5293;51.464;-2.566;2023-04-03T09:23:44;8.40;99.90
10492;DHT22;5293;51.464;-2.566;2023-04-03T09:26:21;8.50;99.90
10492;DHT22;5293;51.464;-2.566;2023-04-03T09:28:48;8.60;99.90
10492;DHT22;5293;51.464;-2.566;2023-04-03T09:31:27;8.70;99.90
10492;DHT22;5293;51.464;-2.566;2023-04-03T09:33:58;8.80;99.90
10492;DHT22;5293;51.464;-2.566;2023-04-03T09:39:13;8.80;99.90
10492;DHT22;5293;51.464;-2.566;2023-04-03T09:41:40;8.80;99.90
10492;DHT22;5293;51.464;-2.566;2023-04-03T09:44:21;8.80;99.90
10492;DHT22;5293;51.464;-2.566;2023-04-03T09:46:47;8.90;99.90
10492;DHT22;5293;51.464;-2.566;2023-04-03T09:49:13;9.00;99.90
10492;DHT22;5293;51.464;-2.566;2023-04-03T09:51:39;9.00;99.90
10492;DHT22;5293;51.464;-2.566;2023-04-03T09:56:51;9.20;99.90
10492;DHT22;5293;51.464;-2.566;2023-04-03T09:59:19;9.20;99.90
10492;DHT22;5293;51.464;-2.566;2023-04-03T10:04:24;9.30;99.90
10492;DHT22;5293;51.464;-2.566;2023-04-03T10:06:55;9.30;99.90
10492;DHT22;5293;51.464;-2.566;2023-04-03T10:09:26;9.50;99.90
10492;DHT22;5293;51.464;-2.566;2023-04-03T10:12:12;9.50;99.90
10492;DHT22;5293;51.464;-2.566;2023-04-03T10:15:00;9.40;99.90
10492;DHT22;5293;51.464;-2.566;2023-04-03T10:20:42;9.60;99.90
10492;DHT22;5293;51.464;-2.566;2023-04-03T10:23:17;9.60;99.90
10492;DHT22;5293;51.464;-2.566;2023-04-03T10:28:46;9.80;99.90
10492;DHT22;5293;51.464;-2.566;2023-04-03T10:45:41;10.20;99.90
10492;DHT22;5293;51.464;-2.566;2023-04-03T10:51:25;10.10;99.90
10492;DHT22;5293;51.464;-2.566;2023-04-03T10:56:50;10.10;99.90
10492;DHT22;5293;51.464;-2.566;2023-04-03T11:01:58;10.10;99.90
10492;DHT22;5293;51.464;-2.566;2023-04-03T11:04:28;10.20;99.90
10492;DHT22;5293;51.464;-2.566;2023-04-03T11:07:03;10.40;99.90
10492;DHT22;5293;51.464;-2.566;2023-04-03T11:09:40;10.50;99.90
10492;DHT22;5293;51.464;-2.566;2023-04-03T11:12:18;10.40;99.90
10492;DHT22;5293;51.464;-2.566;2023-04-03T11:14:47;10.40;99.90
10492;DHT22;5293;51.464;-2.566;2023-04-03T11:17:35;10.60;99.90
10492;DHT22;5293;51.464;-2.566;2023-04-03T11:23:00;10.90;99.90
10492;DHT22;5293;51.464;-2.566;2023-04-03T11:25:30;10.90;99.90
10492;DHT22;5293;51.464;-2.566;2023-04-03T11:28:00;10.70;99.90
10492;DHT22;5293;51.464;-2.566;2023-04-03T11:34:32;10.50;99.90
10492;DHT22;5293;51.464;-2.566;2023-04-03T11:36:38;10.40;99.90
10492;DHT22;5293;51.464;-2.566;2023-04-03T11:41:54;10.30;99.90
10492;DHT22;5293;51.464;-2.566;2023-04-03T11:44:37;10.40;99.90
10492;DHT22;5293;51.464;-2.566;2023-04-03T11:47:05;10.60;99.90
10492;DHT22;5293;51.464;-2.566;2023-04-03T11:58:01;11.20;99.90
10492;DHT22;5293;51.464;-2.566;2023-04-03T12:16:07;10.70;99.90
10492;DHT22;5293;51.464;-2.566;2023-04-03T12:21:22;10.90;99.90
10492;DHT22;5293;51.464;-2.566;2023-04-03T12:27:09;10.90;99.90
10492;DHT22;5293;51.464;-2.566;2023-04-03T12:29:47;11.00;99.90
10492;DHT22;5293;51.464;-2.566;2023-04-03T12:32:49;11.00;99.90
10492;DHT22;5293;51.464;-2.566;2023-04-03T12:46:15;11.00;99.90
10492;DHT22;5293;51.464;-2.566;2023-04-03T12:49:04;11.00;99.90
10492;DHT22;5293;51.464;-2.566;2023-04-03T12:51:41;11.10;99.90
10492;DHT22;5293;51.464;-2.566;2023-04-03T12:54:14;11.20;99.90
10492;DHT22;5293;51.464;-2.566;2023-04-03T12:56:41;11.30;99.90
10492;DHT22;5293;51.464;-2.566;2023-04-03T12:59:24;11.30;99.90
10492;DHT22;5293;51.464;-2.566;2023-04-03T13:01:59;11.40;99.90
10492;DHT22;5293;51.464;-2.566;2023-04-03T13:04:27;11.40;99.90
10492;DHT22;5293;51.464;-2.566;2023-04-03T13:06:53;11.50;99.90
10492;DHT22;5293;51.464;-2.566;2023-04-03T13:09:27;11.60;99.90
10492;DHT22;5293;51.464;-2.566;2023-04-03T13:12:15;11.60;99.90
10492;DHT22;5293;51.464;-2.566;2023-04-03T13:14:54;11.70;99.90
10492;DHT22;5293;51.464;-2.566;2023-04-03T13:17:20;11.70;99.90
10492;DHT22;5293;51.464;-2.566;2023-04-03T13:19:47;11.70;99.90
10492;DHT22;5293;51.464;-2.566;2023-04-03T13:24:51;12.00;99.90
10492;DHT22;5293;51.464;-2.566;2023-04-03T13:27:17;12.10;99.90
10492;DHT22;5293;51.464;-2.566;2023-04-03T13:29:43;12.20;99.90
10492;DHT22;5293;51.464;-2.566;2023-04-03T13:32:19;12.20;99.90
10492;DHT22;5293;51.464;-2.566;2023-04-03T13:34:45;12.30;99.90
10492;DHT22;5293;51.464;-2.566;2023-04-03T13:37:29;12.20;99.90
10492;DHT22;5293;51.464;-2.566;2023-04-03T13:42:35;12.00;99.90
10492;DHT22;5293;51.464;-2.566;2023-04-03T13:45:29;11.90;99.90
10492;DHT22;5293;51.464;-2.566;2023-04-03T13:48:18;11.90;99.90
10492;DHT22;5293;51.464;-2.566;2023-04-03T13:53:46;11.80;99.90
10492;DHT22;5293;51.464;-2.566;2023-04-03T13:56:34;12.00;99.90
10492;DHT22;5293;51.464;-2.566;2023-04-03T13:59:22;12.10;99.90
10492;DHT22;5293;51.464;-2.566;2023-04-03T14:01:55;12.30;99.90
10492;DHT22;5293;51.464;-2.566;2023-04-03T14:04:56;12.20;99.90
10492;DHT22;5293;51.464;-2.566;2023-04-03T14:07:26;12.10;99.90
10492;DHT22;5293;51.464;-2.566;2023-04-03T14:09:52;12.10;99.90
10492;DHT22;5293;51.464;-2.566;2023-04-03T14:12:25;12.20;99.90
10492;DHT22;5293;51.464;-2.566;2023-04-03T14:14:52;12.30;99.90
10492;DHT22;5293;51.464;-2.566;2023-04-03T14:17:23;12.20;99.90
10492;DHT22;5293;51.464;-2.566;2023-04-03T14:19:51;12.10;99.90
10492;DHT22;5293;51.464;-2.566;2023-04-03T14:24:51;12.10;99.90
10492;DHT22;5293;51.464;-2.566;2023-04-03T14:27:18;12.00;99.90
10492;DHT22;5293;51.464;-2.566;2023-04-03T14:29:45;12.10;99.90
10492;DHT22;5293;51.464;-2.566;2023-04-03T14:32:13;12.20;99.90
10492;DHT22;5293;51.464;-2.566;2023-04-03T14:34:39;12.20;99.90
10492;DHT22;5293;51.464;-2.566;2023-04-03T14:37:09;12.20;99.90
10492;DHT22;5293;51.464;-2.566;2023-04-03T14:39:35;12.20;99.90
10492;DHT22;5293;51.464;-2.566;2023-04-03T14:42:01;12.20;99.90
10492;DHT22;5293;51.464;-2.566;2023-04-03T14:44:26;12.20;99.90
10492;DHT22;5293;51.464;-2.566;2023-04-03T14:46:53;12.00;99.90
10492;DHT22;5293;51.464;-2.566;2023-04-03T14:49:20;12.10;99.90
10492;DHT22;5293;51.464;-2.566;2023-04-03T14:51:47;12.10;99.90
10492;DHT22;5293;51.464;-2.566;2023-04-03T14:54:15;12.20;99.90
10492;DHT22;5293;51.464;-2.566;2023-04-03T14:56:42;12.30;99.90
10492;DHT22;5293;51.464;-2.566;2023-04-03T14:59:09;12.40;99.90
10492;DHT22;5293;51.464;-2.566;2023-04-03T15:01:36;12.40;99.90
10492;DHT22;5293;51.464;-2.566;2023-04-03T15:04:05;12.40;99.90
10492;DHT22;5293;51.464;-2.566;2023-04-03T15:06:31;12.30;99.90
10492;DHT22;5293;51.464;-2.566;2023-04-03T15:08:58;12.30;99.90
10492;DHT22;5293;51.464;-2.566;2023-04-03T15:11:23;12.30;99.90
10492;DHT22;5293;51.464;-2.566;2023-04-03T15:13:51;12.20;99.90
10492;DHT22;5293;51.464;-2.566;2023-04-03T15:16:19;12.30;99.90
10492;DHT22;5293;51.464;-2.566;2023-04-03T15:18:45;12.30;99.90
10492;DHT22;5293;51.464;-2.566;2023-04-03T15:21:12;12.30;99.90
10492;DHT22;5293;51.464;-2.566;2023-04-03T15:23:38;12.30;99.90
10492;DHT22;5293;51.464;-2.566;2023-04-03T15:26:04;12.40;99.90
10492;DHT22;5293;51.464;-2.566;2023-04-03T15:28:41;12.30;99.90
10492;DHT22;5293;51.464;-2.566;2023-04-03T15:31:08;12.30;99.90
10492;DHT22;5293;51.464;-2.566;2023-04-03T15:33:34;12.40;99.90
10492;DHT22;5293;51.464;-2.566;2023-04-03T15:36:00;12.40;99.90
10492;DHT22;5293;51.464;-2.566;2023-04-03T15:38:26;12.50;99.90
10492;DHT22;5293;51.464;-2.566;2023-04-03T15:40:52;12.50;99.90
10492;DHT22;5293;51.464;-2.566;2023-04-03T15:43:18;12.50;99.90
10492;DHT22;5293;51.464;-2.566;2023-04-03T15:45:44;12.50;99.90
10492;DHT22;5293;51.464;-2.566;2023-04-03T15:48:11;12.40;99.90
10492;DHT22;5293;51.464;-2.566;2023-04-03T15:50:37;12.40;99.90
10492;DHT22;5293;51.464;-2.566;2023-04-03T15:53:03;12.50;99.90
10492;DHT22;5293;51.464;-2.566;2023-04-03T15:55:31;12.40;99.90
10492;DHT22;5293;51.464;-2.566;2023-04-03T15:57:57;12.40;99.90
10492;DHT22;5293;51.464;-2.566;2023-04-03T16:00:24;12.40;99.90
10492;DHT22;5293;51.464;-2.566;2023-04-03T16:02:52;12.50;99.90
10492;DHT22;5293;51.464;-2.566;2023-04-03T16:05:19;12.50;99.90
10492;DHT22;5293;51.464;-2.566;2023-04-03T16:07:45;12.60;99.90
10492;DHT22;5293;51.464;-2.566;2023-04-03T16:10:13;12.50;99.90
10492;DHT22;5293;51.464;-2.566;2023-04-03T16:12:40;12.50;99.90
10492;DHT22;5293;51.464;-2.566;2023-04-03T16:15:06;12.60;99.90
10492;DHT22;5293;51.464;-2.566;2023-04-03T16:17:33;12.60;99.90
10492;DHT22;5293;51.464;-2.566;2023-04-03T16:19:59;12.50;99.90
10492;DHT22;5293;51.464;-2.566;2023-04-03T16:22:26;12.50;99.90
10492;DHT22;5293;51.464;-2.566;2023-04-03T16:24:53;12.50;99.90
10492;DHT22;5293;51.464;-2.566;2023-04-03T16:27:20;12.50;99.90
10492;DHT22;5293;51.464;-2.566;2023-04-03T16:29:46;12.60;99.90
10492;DHT22;5293;51.464;-2.566;2023-04-03T16:32:12;12.60;99.90
10492;DHT22;5293;51.464;-2.566;2023-04-03T16:34:38;12.60;99.90
10492;DHT22;5293;51.464;-2.566;2023-04-03T16:37:06;12.50;99.90
10492;DHT22;5293;51.464;-2.566;2023-04-03T16:39:34;12.50;99.90
10492;DHT22;5293;51.464;-2.566;2023-04-03T16:42:00;12.60;99.90
10492;DHT22;5293;51.464;-2.566;2023-04-03T16:44:25;12.60;99.90
10492;DHT22;5293;51.464;-2.566;2023-04-03T16:46:51;12.60;99.90
10492;DHT22;5293;51.464;-2.566;2023-04-03T16:49:17;12.70;99.90
10492;DHT22;5293;51.464;-2.566;2023-04-03T16:51:43;12.70;99.90
10492;DHT22;5293;51.464;-2.566;2023-04-03T16:54:09;12.80;99.90
10492;DHT22;5293;51.464;-2.566;2023-04-03T16:56:37;12.70;99.90
10492;DHT22;5293;51.464;-2.566;2023-04-03T16:59:02;12.60;99.90
10492;DHT22;5293;51.464;-2.566;2023-04-03T17:01:28;12.70;99.90
10492;DHT22;5293;51.464;-2.566;2023-04-03T17:03:54;12.60;99.90
10492;DHT22;5293;51.464;-2.566;2023-04-03T17:06:21;12.60;99.90
10492;DHT22;5293;51.464;-2.566;2023-04-03T17:08:49;12.60;99.90
10492;DHT22;5293;51.464;-2.566;2023-04-03T17:11:16;12.60;99.90
10492;DHT22;5293;51.464;-2.566;2023-04-03T17:13:41;12.60;99.90
10492;DHT22;5293;51.464;-2.566;2023-04-03T17:16:11;12.50;99.90
10492;DHT22;5293;51.464;-2.566;2023-04-03T17:18:37;12.40;99.90
10492;DHT22;5293;51.464;-2.566;2023-04-03T17:21:03;12.40;99.90
10492;DHT22;5293;51.464;-2.566;2023-04-03T17:23:30;12.40;99.90
10492;DHT22;5293;51.464;-2.566;2023-04-03T17:25:55;12.30;99.90
10492;DHT22;5293;51.464;-2.566;2023-04-03T17:28:22;12.30;99.90
10492;DHT22;5293;51.464;-2.566;2023-04-03T17:30:57;12.30;99.90
10492;DHT22;5293;51.464;-2.566;2023-04-03T17:33:24;12.30;99.90
10492;DHT22;5293;51.464;-2.566;2023-04-03T17:35:50;12.30;99.90
10492;DHT22;5293;51.464;-2.566;2023-04-03T17:38:16;12.30;99.90
10492;DHT22;5293;51.464;-2.566;2023-04-03T17:40:42;12.30;99.90
10492;DHT22;5293;51.464;-2.566;2023-04-03T17:43:10;12.30;99.90